createdAt,value
2023-03-01T00:00:24.996Z,102784.44
2023-03-01T00:03:26.305Z,102785.84
2023-03-01T00:06:30.328Z,102783.69
2023-03-01T00:09:31.892Z,102780.31
2023-03-01T00:12:34.476Z,102775.78
2023-03-01T00:15:39.846Z,102778.91
2023-03-01T00:18:42.543Z,102770.81
2023-03-01T00:21:44.117Z,102766.78
2023-03-01T00:24:46.763Z,102761.72
2023-03-01T00:27:49.194Z,102760.50
2023-03-01T00:30:52.445Z,102753.84
2023-03-01T00:34:00.538Z,102748.31
2023-03-01T00:37:05.401Z,102757.69
2023-03-01T00:40:09.963Z,102757.22
2023-03-01T00:43:11.326Z,102761.59
2023-03-01T00:46:16.485Z,102764.56
2023-03-01T00:49:17.831Z,102764.94
2023-03-01T00:52:20.352Z,102763.31
2023-03-01T00:55:22.218Z,102756.28
2023-03-01T00:58:24.757Z,102753.59
2023-03-01T01:01:30.015Z,102754.53
2023-03-01T01:07:53.773Z,102742.31
2023-03-01T01:10:55.062Z,102735.13
2023-03-01T01:13:59.021Z,102730.16
2023-03-01T01:20:22.161Z,102734.09
2023-03-01T01:23:24.708Z,102734.88
2023-03-01T01:26:27.968Z,102721.50
2023-03-01T01:29:30.522Z,102717.56
2023-03-01T01:32:32.494Z,102714.88
2023-03-01T01:35:35.088Z,102705.84
2023-03-01T01:38:38.197Z,102708.16
2023-03-01T01:41:43.118Z,102704.22
2023-03-01T01:44:48.447Z,102695.47
2023-03-01T01:47:51.382Z,102701.56
2023-03-01T01:51:00.780Z,102689.88
2023-03-01T01:54:02.272Z,102697.72
2023-03-01T01:57:09.298Z,102683.59
2023-03-01T02:00:14.676Z,102686.06
2023-03-01T02:03:21.449Z,102684.72
2023-03-01T02:06:30.688Z,102686.97
2023-03-01T02:09:32.998Z,102691.13
2023-03-01T02:12:37.147Z,102699.91
2023-03-01T02:15:40.222Z,102696.75
2023-03-01T02:18:45.226Z,102696.66
2023-03-01T02:21:57.369Z,102696.66
2023-03-01T02:25:11.451Z,102708.22
2023-03-01T02:28:26.924Z,102705.97
2023-03-01T02:31:44.838Z,102710.13
2023-03-01T02:34:46.298Z,102703.03
2023-03-01T02:37:50.098Z,102719.53
2023-03-01T02:40:52.687Z,102712.53
2023-03-01T02:43:56.037Z,102702.09
2023-03-01T02:47:01.653Z,102706.38
2023-03-01T02:50:12.916Z,102699.63
2023-03-01T02:53:20.294Z,102690.28
2023-03-01T02:56:23.153Z,102690.28
2023-03-01T02:59:30.999Z,102688.84
2023-03-01T03:02:36.369Z,102691.75
2023-03-01T03:05:38.912Z,102689.44
2023-03-01T03:08:41.507Z,102684.31
2023-03-01T03:11:43.560Z,102689.88
2023-03-01T03:14:46.754Z,102697.84
2023-03-01T03:17:48.520Z,102688.38
2023-03-01T03:20:54.520Z,102688.59
2023-03-01T03:23:59.277Z,102679.66
2023-03-01T03:27:00.659Z,102678.53
2023-03-01T03:30:04.240Z,102681.81
2023-03-01T03:33:07.398Z,102668.56
2023-03-01T03:36:14.297Z,102671.63
2023-03-01T03:39:17.504Z,102665.09
2023-03-01T03:42:19.967Z,102662.97
2023-03-01T03:45:23.878Z,102653.19
2023-03-01T03:48:26.804Z,102652.91
2023-03-01T03:51:28.106Z,102649.66
2023-03-01T03:54:30.685Z,102650.56
2023-03-01T03:57:31.983Z,102648.78
2023-03-01T04:00:35.229Z,102643.47
2023-03-01T04:03:36.586Z,102644.84
2023-03-01T04:06:39.264Z,102636.19
2023-03-01T04:09:41.928Z,102633.78
2023-03-01T04:12:45.002Z,102639.28
2023-03-01T04:15:48.595Z,102638.69
2023-03-01T04:22:19.795Z,102647.09
2023-03-01T04:25:21.084Z,102644.78
2023-03-01T04:28:26.015Z,102651.69
2023-03-01T04:31:28.622Z,102651.81
2023-03-01T04:34:31.268Z,102641.97
2023-03-01T04:37:32.605Z,102646.03
2023-03-01T04:40:34.607Z,102649.75
2023-03-01T04:43:37.158Z,102645.19
2023-03-01T04:46:40.366Z,102642.50
2023-03-01T04:49:41.860Z,102642.00
2023-03-01T04:52:43.769Z,102644.31
2023-03-01T04:55:45.093Z,102646.19
2023-03-01T04:58:47.196Z,102643.28
2023-03-01T05:01:49.145Z,102643.66
2023-03-01T05:04:51.687Z,102643.47
2023-03-01T05:07:54.522Z,102640.22
2023-03-01T05:10:57.080Z,102637.09
2023-03-01T05:13:58.782Z,102641.78
2023-03-01T05:20:23.698Z,102637.00
2023-03-01T05:23:25.580Z,102632.25
2023-03-01T05:26:30.139Z,102639.69
2023-03-01T05:29:35.033Z,102629.94
2023-03-01T05:32:38.318Z,102627.75
2023-03-01T05:35:40.721Z,102630.06
2023-03-01T05:38:42.514Z,102630.56
2023-03-01T05:41:45.057Z,102629.47
2023-03-01T05:44:46.313Z,102627.63
2023-03-01T05:47:50.928Z,102619.56
2023-03-01T05:50:52.247Z,102627.50
2023-03-01T05:53:54.824Z,102626.41
2023-03-01T05:56:56.548Z,102621.16
2023-03-01T05:59:57.878Z,102630.44
2023-03-01T06:03:01.190Z,102636.06
2023-03-01T06:06:02.785Z,102639.09
2023-03-01T06:09:04.955Z,102636.91
2023-03-01T06:12:07.875Z,102629.22
2023-03-01T06:15:10.557Z,102628.00
2023-03-01T06:18:12.746Z,102629.47
2023-03-01T06:21:14.041Z,102631.03
2023-03-01T06:24:16.540Z,102614.81
2023-03-01T06:27:17.816Z,102621.66
2023-03-01T06:30:20.681Z,102626.19
2023-03-01T06:33:24.527Z,102629.47
2023-03-01T06:36:26.000Z,102630.78
2023-03-01T06:39:29.818Z,102640.44
2023-03-01T06:42:31.085Z,102643.63
2023-03-01T06:45:33.820Z,102645.81
2023-03-01T06:48:35.940Z,102642.97
2023-03-01T06:51:38.535Z,102644.09
2023-03-01T06:54:39.813Z,102645.75
2023-03-01T06:57:42.383Z,102648.41
2023-03-01T07:00:44.497Z,102648.25
2023-03-01T07:03:46.465Z,102639.81
2023-03-01T07:06:55.699Z,102648.81
2023-03-01T07:09:56.980Z,102650.91
2023-03-01T07:13:00.482Z,102641.59
2023-03-01T07:16:01.832Z,102648.91
2023-03-01T07:19:06.912Z,102649.47
2023-03-01T07:22:09.512Z,102641.19
2023-03-01T07:25:12.816Z,102649.72
2023-03-01T07:28:15.356Z,102643.78
2023-03-01T07:31:16.674Z,102647.56
2023-03-01T07:34:19.927Z,102638.56
2023-03-01T07:37:22.488Z,102642.03
2023-03-01T07:40:23.839Z,102641.59
2023-03-01T07:43:25.194Z,102631.94
2023-03-01T07:46:28.164Z,102637.03
2023-03-01T07:49:30.191Z,102647.59
2023-03-01T07:52:32.839Z,102644.41
2023-03-01T07:55:34.126Z,102640.09
2023-03-01T07:58:37.274Z,102640.75
2023-03-01T08:01:40.058Z,102642.41
2023-03-01T08:04:42.291Z,102642.28
2023-03-01T08:07:44.844Z,102634.84
2023-03-01T08:10:46.144Z,102635.50
2023-03-01T08:13:51.092Z,102634.22
2023-03-01T08:16:52.847Z,102638.13
2023-03-01T08:19:55.126Z,102635.66
2023-03-01T08:22:58.632Z,102626.56
2023-03-01T08:26:08.423Z,102628.22
2023-03-01T08:29:10.975Z,102627.09
2023-03-01T08:32:12.417Z,102610.06
2023-03-01T08:35:14.638Z,102613.19
2023-03-01T08:38:16.681Z,102612.59
2023-03-01T08:41:18.136Z,102607.19
2023-03-01T08:44:22.344Z,102605.31
2023-03-01T08:47:24.953Z,102618.72
2023-03-01T08:50:26.898Z,102617.66
2023-03-01T08:53:29.436Z,102611.91
2023-03-01T08:56:30.953Z,102610.41
2023-03-01T08:59:37.583Z,102607.03
2023-03-01T09:06:02.741Z,102596.00
2023-03-01T09:09:08.237Z,102599.06
2023-03-01T09:12:09.548Z,102596.84
2023-03-01T09:15:11.330Z,102602.97
2023-03-01T09:18:13.921Z,102606.00
2023-03-01T09:21:18.284Z,102597.34
2023-03-01T09:24:22.423Z,102599.22
2023-03-01T09:27:26.181Z,102602.41
2023-03-01T09:30:27.653Z,102604.13
2023-03-01T09:33:30.523Z,102596.97
2023-03-01T09:36:33.832Z,102601.03
2023-03-01T09:43:03.839Z,102597.13
2023-03-01T09:46:09.068Z,102590.72
2023-03-01T09:49:19.321Z,102590.34
2023-03-01T09:52:31.502Z,102590.81
2023-03-01T09:55:40.858Z,102588.31
2023-03-01T09:58:54.025Z,102586.66
2023-03-01T10:02:01.098Z,102588.56
2023-03-01T10:05:24.724Z,102597.63
2023-03-01T10:08:37.610Z,102591.63
2023-03-01T10:11:46.616Z,102594.78
2023-03-01T10:14:56.243Z,102595.59
2023-03-01T10:18:07.224Z,102586.63
2023-03-01T10:21:15.971Z,102591.34
2023-03-01T10:27:50.006Z,102588.19
2023-03-01T10:30:51.574Z,102580.59
2023-03-01T10:33:55.326Z,102581.00
2023-03-01T10:37:01.706Z,102571.66
2023-03-01T10:40:07.338Z,102566.78
2023-03-01T10:43:14.105Z,102563.41
2023-03-01T10:46:30.914Z,102556.97
2023-03-01T10:49:32.489Z,102549.25
2023-03-01T10:52:36.016Z,102548.66
2023-03-01T10:55:40.003Z,102549.31
2023-03-01T10:58:58.541Z,102540.84
2023-03-01T11:02:25.011Z,102546.06
2023-03-01T11:05:29.925Z,102542.44
2023-03-01T11:08:35.173Z,102534.97
2023-03-01T11:14:58.142Z,102525.88
2023-03-01T11:18:12.711Z,102523.63
2023-03-01T11:21:16.503Z,102518.50
2023-03-01T11:24:20.664Z,102519.13
2023-03-01T11:27:26.514Z,102510.81
2023-03-01T11:30:34.109Z,102515.53
2023-03-01T11:33:41.844Z,102517.41
2023-03-01T11:36:51.161Z,102514.31
2023-03-01T11:39:59.296Z,102514.13
2023-03-01T11:43:11.657Z,102510.44
2023-03-01T11:46:58.626Z,102509.53
2023-03-01T11:50:19.083Z,102513.41
2023-03-01T11:53:47.354Z,102497.78
2023-03-01T11:56:55.229Z,102504.09
2023-03-01T12:00:33.147Z,102506.25
2023-03-01T12:03:51.106Z,102502.63
2023-03-01T12:06:58.966Z,102500.34
2023-03-01T12:10:23.539Z,102488.59
2023-03-01T12:17:49.774Z,102482.63
2023-03-01T12:21:00.074Z,102481.31
2023-03-01T12:24:32.365Z,102480.88
2023-03-01T12:27:51.277Z,102473.19
2023-03-01T12:31:08.167Z,102475.22
2023-03-01T12:34:27.432Z,102462.47
2023-03-01T12:37:39.763Z,102451.31
2023-03-01T12:41:02.164Z,102456.09
2023-03-01T12:44:14.324Z,102447.44
2023-03-01T12:50:51.777Z,102443.38
2023-03-01T12:53:56.356Z,102430.94
2023-03-01T12:57:04.061Z,102432.22
2023-03-01T13:00:22.566Z,102433.88
2023-03-01T13:07:05.345Z,102420.50
2023-03-01T13:10:24.806Z,102416.19
2023-03-01T13:13:28.056Z,102423.53
2023-03-01T13:20:15.333Z,102406.66
2023-03-01T13:23:26.968Z,102407.94
2023-03-01T13:26:30.469Z,102407.03
2023-03-01T13:29:45.001Z,102399.09
2023-03-01T13:32:46.509Z,102406.19
2023-03-01T13:35:47.932Z,102403.47
2023-03-01T13:38:58.790Z,102402.22
2023-03-01T13:42:02.537Z,102393.97
2023-03-01T13:45:06.938Z,102390.88
2023-03-01T13:48:18.538Z,102386.22
2023-03-01T13:51:25.476Z,102388.75
2023-03-01T13:54:31.335Z,102383.72
2023-03-01T13:57:37.971Z,102381.41
2023-03-01T14:00:40.502Z,102378.25
2023-03-01T14:03:44.326Z,102373.59
2023-03-01T14:06:46.893Z,102370.44
2023-03-01T14:09:52.848Z,102363.50
2023-03-01T14:13:15.680Z,102354.19
2023-03-01T14:16:32.001Z,102352.31
2023-03-01T14:19:35.790Z,102355.88
2023-03-01T14:22:38.786Z,102351.66
2023-03-01T14:25:48.038Z,102335.00
2023-03-01T14:28:52.117Z,102325.75
2023-03-01T14:31:53.960Z,102321.31
2023-03-01T14:34:57.787Z,102325.09
2023-03-01T14:38:00.667Z,102332.06
2023-03-01T14:41:06.805Z,102327.44
2023-03-01T14:44:16.256Z,102329.75
2023-03-01T14:47:27.330Z,102325.94
2023-03-01T14:50:30.840Z,102325.09
2023-03-01T14:53:42.693Z,102324.91
2023-03-01T14:56:52.251Z,102322.31
2023-03-01T14:59:56.846Z,102314.78
2023-03-01T15:03:11.360Z,102307.41
2023-03-01T15:06:16.678Z,102310.53
2023-03-01T15:09:19.609Z,102310.75
2023-03-01T15:12:40.008Z,102312.66
2023-03-01T15:15:44.197Z,102311.16
2023-03-01T15:18:48.850Z,102308.19
2023-03-01T15:21:50.842Z,102305.66
2023-03-01T15:24:53.722Z,102310.50
2023-03-01T15:27:57.402Z,102315.94
2023-03-01T15:31:03.083Z,102310.47
2023-03-01T15:34:23.770Z,102313.47
2023-03-01T15:37:44.410Z,102312.19
2023-03-01T15:40:50.880Z,102313.19
2023-03-01T15:43:55.714Z,102319.13
2023-03-01T15:46:59.677Z,102314.50
2023-03-01T15:50:01.844Z,102313.16
2023-03-01T15:53:08.375Z,102311.88
2023-03-01T15:56:09.680Z,102306.34
2023-03-01T15:59:14.844Z,102304.09
2023-03-01T16:02:16.900Z,102295.63
2023-03-01T16:05:22.810Z,102303.75
2023-03-01T16:08:24.113Z,102293.88
2023-03-01T16:11:26.670Z,102292.97
2023-03-01T16:14:28.222Z,102291.28
2023-03-01T16:20:50.999Z,102291.97
2023-03-01T16:23:54.188Z,102280.75
2023-03-01T16:26:57.044Z,102288.47
2023-03-01T16:29:58.545Z,102290.84
2023-03-01T16:33:00.501Z,102292.59
2023-03-01T16:36:02.634Z,102292.84
2023-03-01T16:39:04.186Z,102297.78
2023-03-01T16:42:05.571Z,102298.31
2023-03-01T16:45:18.428Z,102298.16
2023-03-01T16:48:24.616Z,102297.53
2023-03-01T16:51:27.180Z,102303.31
2023-03-01T16:54:28.856Z,102303.81
2023-03-01T16:57:31.933Z,102303.91
2023-03-01T17:00:33.360Z,102305.72
2023-03-01T17:03:36.278Z,102305.44
2023-03-01T17:06:38.642Z,102302.81
2023-03-01T17:09:39.929Z,102304.59
2023-03-01T17:12:42.165Z,102300.28
2023-03-01T17:15:44.749Z,102306.03
2023-03-01T17:18:48.133Z,102314.25
2023-03-01T17:21:49.568Z,102310.13
2023-03-01T17:24:51.856Z,102310.88
2023-03-01T17:27:53.288Z,102317.88
2023-03-01T17:30:54.996Z,102316.25
2023-03-01T17:33:59.310Z,102323.44
2023-03-01T17:37:02.006Z,102313.84
2023-03-01T17:40:04.061Z,102310.53
2023-03-01T17:43:06.311Z,102314.88
2023-03-01T17:46:08.163Z,102319.75
2023-03-01T17:52:30.551Z,102323.94
2023-03-01T17:55:32.754Z,102330.97
2023-03-01T17:58:34.239Z,102332.19
2023-03-01T18:01:36.598Z,102323.06
2023-03-01T18:04:38.707Z,102329.03
2023-03-01T18:07:41.026Z,102316.97
2023-03-01T18:10:43.588Z,102319.56
2023-03-01T18:13:47.256Z,102314.84
2023-03-01T18:16:48.584Z,102312.53
2023-03-01T18:23:13.512Z,102317.16
2023-03-01T18:26:18.870Z,102328.56
2023-03-01T18:32:40.979Z,102315.50
2023-03-01T18:35:44.057Z,102323.34
2023-03-01T18:38:45.905Z,102327.41
2023-03-01T18:41:47.206Z,102327.09
2023-03-01T18:44:50.035Z,102324.03
2023-03-01T18:47:52.635Z,102327.59
2023-03-01T18:50:56.631Z,102324.41
2023-03-01T18:53:59.754Z,102326.78
2023-03-01T18:57:01.158Z,102331.00
2023-03-01T19:00:03.367Z,102334.06
2023-03-01T19:03:05.949Z,102327.97
2023-03-01T19:06:08.742Z,102326.13
2023-03-01T19:09:12.272Z,102321.00
2023-03-01T19:12:13.833Z,102327.78
2023-03-01T19:15:16.953Z,102329.63
2023-03-01T19:18:18.439Z,102318.78
2023-03-01T19:21:22.287Z,102322.34
2023-03-01T19:24:23.630Z,102332.00
2023-03-01T19:27:26.285Z,102334.66
2023-03-01T19:30:27.695Z,102332.63
2023-03-01T19:33:29.916Z,102332.09
2023-03-01T19:36:32.655Z,102345.28
2023-03-01T19:39:35.434Z,102334.97
2023-03-01T19:42:36.878Z,102340.84
2023-03-01T19:45:39.622Z,102337.28
2023-03-01T19:48:41.410Z,102332.00
2023-03-01T19:51:43.374Z,102340.28
2023-03-01T19:54:45.901Z,102338.25
2023-03-01T19:57:47.233Z,102331.47
2023-03-01T20:01:08.012Z,102344.63
2023-03-01T20:04:11.338Z,102337.69
2023-03-01T20:07:13.255Z,102334.75
2023-03-01T20:10:14.774Z,102335.94
2023-03-01T20:13:16.180Z,102333.69
2023-03-01T20:16:20.534Z,102335.03
2023-03-01T20:19:21.894Z,102332.81
2023-03-01T20:22:24.111Z,102346.63
2023-03-01T20:25:25.454Z,102339.84
2023-03-01T20:28:27.974Z,102341.34
2023-03-01T20:31:29.844Z,102344.22
2023-03-01T20:34:32.709Z,102336.09
2023-03-01T20:37:35.929Z,102338.09
2023-03-01T20:40:37.660Z,102341.44
2023-03-01T20:43:41.947Z,102338.59
2023-03-01T20:46:43.288Z,102345.00
2023-03-01T20:49:46.209Z,102346.50
2023-03-01T20:52:49.592Z,102341.69
2023-03-01T20:55:50.906Z,102336.63
2023-03-01T21:05:37.096Z,102331.28
2023-03-01T21:08:41.507Z,102321.97
2023-03-01T21:11:43.319Z,102326.94
2023-03-01T21:14:47.689Z,102319.59
2023-03-01T21:17:49.211Z,102333.25
2023-03-01T21:20:51.740Z,102332.78
2023-03-01T21:23:55.105Z,102336.81
2023-03-01T21:26:57.961Z,102338.81
2023-03-01T21:29:59.260Z,102329.88
2023-03-01T21:33:01.786Z,102329.78
2023-03-01T21:36:05.465Z,102329.94
2023-03-01T21:39:08.925Z,102326.72
2023-03-01T21:42:10.269Z,102328.56
2023-03-01T21:45:13.055Z,102329.84
2023-03-01T21:48:15.759Z,102323.38
2023-03-01T21:51:18.778Z,102319.84
2023-03-01T21:54:22.011Z,102325.94
2023-03-01T21:57:24.551Z,102319.16
2023-03-01T22:00:27.315Z,102322.91
2023-03-01T22:03:29.975Z,102315.56
2023-03-01T22:06:33.364Z,102329.91
2023-03-01T22:09:36.782Z,102316.25
2023-03-01T22:12:38.098Z,102321.66
2023-03-01T22:15:42.226Z,102320.38
2023-03-01T22:18:44.788Z,102323.38
2023-03-01T22:21:50.249Z,102315.56
2023-03-01T22:24:52.202Z,102320.91
2023-03-01T22:27:54.758Z,102317.34
2023-03-01T22:30:56.168Z,102321.06
2023-03-01T22:34:03.098Z,102323.19
2023-03-01T22:37:04.421Z,102315.78
2023-03-01T22:40:10.500Z,102311.69
2023-03-01T22:43:13.118Z,102309.63
2023-03-01T22:46:18.081Z,102308.34
2023-03-01T22:49:21.406Z,102307.19
2023-03-01T22:52:22.928Z,102309.03
2023-03-01T22:55:28.597Z,102302.78
2023-03-01T22:58:31.236Z,102306.66
2023-03-01T23:01:32.646Z,102314.94
2023-03-01T23:04:35.136Z,102315.41
2023-03-01T23:07:37.024Z,102314.09
2023-03-01T23:10:41.907Z,102306.47
2023-03-01T23:13:43.628Z,102311.16
2023-03-01T23:16:46.598Z,102306.78
2023-03-01T23:19:50.725Z,102306.31
2023-03-01T23:22:52.917Z,102289.31
2023-03-01T23:25:57.839Z,102291.44
2023-03-01T23:29:00.383Z,102294.28
2023-03-01T23:32:03.573Z,102281.34
2023-03-01T23:35:06.486Z,102286.88
2023-03-01T23:38:09.007Z,102278.69
2023-03-01T23:41:12.534Z,102272.28
2023-03-01T23:44:15.981Z,102262.94
2023-03-01T23:47:18.531Z,102265.03
2023-03-01T23:50:19.824Z,102260.78
2023-03-01T23:56:45.481Z,102260.94
2023-03-01T23:59:48.015Z,102268.88
